sensor_id;sensor_type;location;lat;lon;timestamp;temperature;humidity
28524;DHT22;15734;50.904;6.922;2023-02-28T00:02:13;2.10;99.90
28524;DHT22;15734;50.904;6.922;2023-02-28T00:04:38;2.00;99.90
28524;DHT22;15734;50.904;6.922;2023-02-28T00:07:04;2.00;99.90
28524;DHT22;15734;50.904;6.922;2023-02-28T00:09:29;2.00;99.90
28524;DHT22;15734;50.904;6.922;2023-02-28T00:11:55;1.80;99.90
28524;DHT22;15734;50.904;6.922;2023-02-28T00:14:20;1.80;99.90
28524;DHT22;15734;50.904;6.922;2023-02-28T00:16:45;1.80;99.90
28524;DHT22;15734;50.904;6.922;2023-02-28T00:19:11;1.80;99.90
28524;DHT22;15734;50.904;6.922;2023-02-28T00:21:38;1.70;99.90
28524;DHT22;15734;50.904;6.922;2023-02-28T00:24:06;1.80;99.90
28524;DHT22;15734;50.904;6.922;2023-02-28T00:26:31;1.80;99.90
28524;DHT22;15734;50.904;6.922;2023-02-28T00:28:57;1.80;99.90
28524;DHT22;15734;50.904;6.922;2023-02-28T00:31:22;1.80;99.90
28524;DHT22;15734;50.904;6.922;2023-02-28T00:33:48;1.80;99.90
28524;DHT22;15734;50.904;6.922;2023-02-28T00:36:13;1.70;99.90
28524;DHT22;15734;50.904;6.922;2023-02-28T00:38:40;1.70;99.90
28524;DHT22;15734;50.904;6.922;2023-02-28T00:41:06;1.70;99.90
28524;DHT22;15734;50.904;6.922;2023-02-28T00:43:36;1.60;99.90
28524;DHT22;15734;50.904;6.922;2023-02-28T00:46:02;1.70;99.90
28524;DHT22;15734;50.904;6.922;2023-02-28T00:48:28;1.70;99.90
28524;DHT22;15734;50.904;6.922;2023-02-28T00:50:53;1.70;99.90
28524;DHT22;15734;50.904;6.922;2023-02-28T00:53:19;1.80;99.90
28524;DHT22;15734;50.904;6.922;2023-02-28T00:55:45;1.80;99.90
28524;DHT22;15734;50.904;6.922;2023-02-28T00:58:10;1.80;99.90
28524;DHT22;15734;50.904;6.922;2023-02-28T01:00:36;1.80;99.90
28524;DHT22;15734;50.904;6.922;2023-02-28T01:03:01;1.80;99.90
28524;DHT22;15734;50.904;6.922;2023-02-28T01:05:27;1.80;99.90
28524;DHT22;15734;50.904;6.922;2023-02-28T01:07:52;1.80;99.90
28524;DHT22;15734;50.904;6.922;2023-02-28T01:10:18;1.70;99.90
28524;DHT22;15734;50.904;6.922;2023-02-28T01:12:43;1.70;99.90
28524;DHT22;15734;50.904;6.922;2023-02-28T01:15:09;1.70;99.90
28524;DHT22;15734;50.904;6.922;2023-02-28T01:17:35;1.80;99.90
28524;DHT22;15734;50.904;6.922;2023-02-28T01:20:01;1.70;99.90
28524;DHT22;15734;50.904;6.922;2023-02-28T01:22:26;1.60;99.90
28524;DHT22;15734;50.904;6.922;2023-02-28T01:24:52;1.60;99.90
28524;DHT22;15734;50.904;6.922;2023-02-28T01:27:18;1.50;99.90
28524;DHT22;15734;50.904;6.922;2023-02-28T01:29:43;1.40;99.90
28524;DHT22;15734;50.904;6.922;2023-02-28T01:32:09;1.50;99.90
28524;DHT22;15734;50.904;6.922;2023-02-28T01:34:34;1.40;99.90
28524;DHT22;15734;50.904;6.922;2023-02-28T01:36:59;1.40;99.90
28524;DHT22;15734;50.904;6.922;2023-02-28T01:39:26;1.40;99.90
28524;DHT22;15734;50.904;6.922;2023-02-28T01:41:51;1.40;99.90
28524;DHT22;15734;50.904;6.922;2023-02-28T01:47:01;1.50;99.90
28524;DHT22;15734;50.904;6.922;2023-02-28T01:49:27;1.50;99.90
28524;DHT22;15734;50.904;6.922;2023-02-28T01:51:53;1.50;99.90
28524;DHT22;15734;50.904;6.922;2023-02-28T01:54:26;1.50;99.90
28524;DHT22;15734;50.904;6.922;2023-02-28T01:57:03;1.50;99.90
28524;DHT22;15734;50.904;6.922;2023-02-28T01:59:30;1.50;99.90
28524;DHT22;15734;50.904;6.922;2023-02-28T02:01:57;1.50;99.90
28524;DHT22;15734;50.904;6.922;2023-02-28T02:04:23;1.40;99.90
28524;DHT22;15734;50.904;6.922;2023-02-28T02:06:50;1.30;99.90
28524;DHT22;15734;50.904;6.922;2023-02-28T02:09:16;1.20;99.90
28524;DHT22;15734;50.904;6.922;2023-02-28T02:11:42;1.10;99.90
28524;DHT22;15734;50.904;6.922;2023-02-28T02:14:27;1.10;99.90
28524;DHT22;15734;50.904;6.922;2023-02-28T02:22:20;1.20;99.90
28524;DHT22;15734;50.904;6.922;2023-02-28T02:30:02;1.10;99.90
28524;DHT22;15734;50.904;6.922;2023-02-28T02:40:09;1.00;99.90
28524;DHT22;15734;50.904;6.922;2023-02-28T02:42:48;0.90;99.90
28524;DHT22;15734;50.904;6.922;2023-02-28T02:47:44;1.00;99.90
28524;DHT22;15734;50.904;6.922;2023-02-28T02:50:22;1.00;99.90
28524;DHT22;15734;50.904;6.922;2023-02-28T02:52:49;1.00;99.90
28524;DHT22;15734;50.904;6.922;2023-02-28T02:55:16;1.00;99.90
28524;DHT22;15734;50.904;6.922;2023-02-28T02:57:47;0.90;99.90
28524;DHT22;15734;50.904;6.922;2023-02-28T03:00:14;0.90;99.90
28524;DHT22;15734;50.904;6.922;2023-02-28T03:02:41;0.90;99.90
28524;DHT22;15734;50.904;6.922;2023-02-28T03:05:16;0.90;99.90
28524;DHT22;15734;50.904;6.922;2023-02-28T03:07:43;0.90;99.90
28524;DHT22;15734;50.904;6.922;2023-02-28T03:10:28;0.80;99.90
28524;DHT22;15734;50.904;6.922;2023-02-28T03:12:58;0.80;99.90
28524;DHT22;15734;50.904;6.922;2023-02-28T03:15:32;0.80;99.90
28524;DHT22;15734;50.904;6.922;2023-02-28T03:18:01;0.80;99.90
28524;DHT22;15734;50.904;6.922;2023-02-28T03:23:01;0.70;99.90
28524;DHT22;15734;50.904;6.922;2023-02-28T03:26:29;0.70;99.90
28524;DHT22;15734;50.904;6.922;2023-02-28T03:28:27;0.70;99.90
28524;DHT22;15734;50.904;6.922;2023-02-28T03:31:00;0.70;99.90
28524;DHT22;15734;50.904;6.922;2023-02-28T03:33:27;0.70;99.90
28524;DHT22;15734;50.904;6.922;2023-02-28T03:35:54;0.70;99.90
28524;DHT22;15734;50.904;6.922;2023-02-28T03:38:28;0.70;99.90
28524;DHT22;15734;50.904;6.922;2023-02-28T03:40:57;0.70;99.90
28524;DHT22;15734;50.904;6.922;2023-02-28T03:43:27;0.70;99.90
28524;DHT22;15734;50.904;6.922;2023-02-28T03:45:54;0.80;99.90
28524;DHT22;15734;50.904;6.922;2023-02-28T03:51:19;0.90;99.90
28524;DHT22;15734;50.904;6.922;2023-02-28T03:53:47;0.80;99.90
28524;DHT22;15734;50.904;6.922;2023-02-28T03:56:24;0.90;99.90
28524;DHT22;15734;50.904;6.922;2023-02-28T03:58:57;0.80;99.90
28524;DHT22;15734;50.904;6.922;2023-02-28T04:03:49;0.90;99.90
28524;DHT22;15734;50.904;6.922;2023-02-28T04:06:16;0.80;99.90
28524;DHT22;15734;50.904;6.922;2023-02-28T04:08:43;0.80;99.90
28524;DHT22;15734;50.904;6.922;2023-02-28T04:11:20;0.80;99.90
28524;DHT22;15734;50.904;6.922;2023-02-28T04:13:46;0.80;99.90
28524;DHT22;15734;50.904;6.922;2023-02-28T04:16:11;0.70;99.90
28524;DHT22;15734;50.904;6.922;2023-02-28T04:18:41;0.80;99.90
28524;DHT22;15734;50.904;6.922;2023-02-28T04:21:08;0.80;99.90
28524;DHT22;15734;50.904;6.922;2023-02-28T04:23:34;0.80;99.90
28524;DHT22;15734;50.904;6.922;2023-02-28T04:25:59;0.70;99.90
28524;DHT22;15734;50.904;6.922;2023-02-28T04:28:25;0.70;99.90
28524;DHT22;15734;50.904;6.922;2023-02-28T04:30:54;0.70;99.90
28524;DHT22;15734;50.904;6.922;2023-02-28T04:33:20;0.70;99.90
28524;DHT22;15734;50.904;6.922;2023-02-28T04:35:45;0.70;99.90
28524;DHT22;15734;50.904;6.922;2023-02-28T04:38:11;0.60;99.90
28524;DHT22;15734;50.904;6.922;2023-02-28T04:40:36;0.60;99.90
28524;DHT22;15734;50.904;6.922;2023-02-28T04:43:02;0.60;99.90
28524;DHT22;15734;50.904;6.922;2023-02-28T04:45:28;0.60;99.90
28524;DHT22;15734;50.904;6.922;2023-02-28T04:47:57;0.70;99.90
28524;DHT22;15734;50.904;6.922;2023-02-28T04:50:23;0.70;99.90
28524;DHT22;15734;50.904;6.922;2023-02-28T04:52:48;0.70;99.90
28524;DHT22;15734;50.904;6.922;2023-02-28T04:55:14;0.60;99.90
28524;DHT22;15734;50.904;6.922;2023-02-28T04:57:39;0.60;99.90
28524;DHT22;15734;50.904;6.922;2023-02-28T05:00:09;0.60;99.90
28524;DHT22;15734;50.904;6.922;2023-02-28T05:02:37;0.60;99.90
28524;DHT22;15734;50.904;6.922;2023-02-28T05:05:03;0.60;99.90
28524;DHT22;15734;50.904;6.922;2023-02-28T05:07:29;0.50;99.90
28524;DHT22;15734;50.904;6.922;2023-02-28T05:09:54;0.40;99.90
28524;DHT22;15734;50.904;6.922;2023-02-28T05:12:20;0.40;99.90
28524;DHT22;15734;50.904;6.922;2023-02-28T05:14:45;0.40;99.90
28524;DHT22;15734;50.904;6.922;2023-02-28T05:17:11;0.40;99.90
28524;DHT22;15734;50.904;6.922;2023-02-28T05:19:36;0.30;99.90
28524;DHT22;15734;50.904;6.922;2023-02-28T05:22:02;0.30;99.90
28524;DHT22;15734;50.904;6.922;2023-02-28T05:24:27;0.30;99.90
28524;DHT22;15734;50.904;6.922;2023-02-28T05:26:53;0.30;99.90
28524;DHT22;15734;50.904;6.922;2023-02-28T05:29:19;0.30;99.90
28524;DHT22;15734;50.904;6.922;2023-02-28T05:31:44;0.20;99.90
28524;DHT22;15734;50.904;6.922;2023-02-28T05:34:10;0.30;99.90
28524;DHT22;15734;50.904;6.922;2023-02-28T05:36:37;0.30;99.90
28524;DHT22;15734;50.904;6.922;2023-02-28T05:39:04;0.30;99.90
28524;DHT22;15734;50.904;6.922;2023-02-28T05:41:30;0.20;99.90
28524;DHT22;15734;50.904;6.922;2023-02-28T05:43:56;0.20;99.90
28524;DHT22;15734;50.904;6.922;2023-02-28T05:46:22;0.20;99.90
28524;DHT22;15734;50.904;6.922;2023-02-28T05:48:48;0.30;99.90
28524;DHT22;15734;50.904;6.922;2023-02-28T05:51:14;0.30;99.90
28524;DHT22;15734;50.904;6.922;2023-02-28T05:53:39;0.30;99.90
28524;DHT22;15734;50.904;6.922;2023-02-28T05:56:05;0.20;99.90
28524;DHT22;15734;50.904;6.922;2023-02-28T05:58:30;0.20;99.90
28524;DHT22;15734;50.904;6.922;2023-02-28T06:00:59;0.10;99.90
28524;DHT22;15734;50.904;6.922;2023-02-28T06:03:25;0.20;99.90
28524;DHT22;15734;50.904;6.922;2023-02-28T06:05:51;0.10;99.90
28524;DHT22;15734;50.904;6.922;2023-02-28T06:08:17;0.20;99.90
28524;DHT22;15734;50.904;6.922;2023-02-28T06:10:43;0.20;99.90
28524;DHT22;15734;50.904;6.922;2023-02-28T06:13:09;0.30;99.90
28524;DHT22;15734;50.904;6.922;2023-02-28T06:15:34;0.30;99.90
28524;DHT22;15734;50.904;6.922;2023-02-28T06:18:00;0.40;99.90
28524;DHT22;15734;50.904;6.922;2023-02-28T06:20:26;0.40;99.90
28524;DHT22;15734;50.904;6.922;2023-02-28T06:22:58;0.40;99.90
28524;DHT22;15734;50.904;6.922;2023-02-28T06:25:26;0.30;99.90
28524;DHT22;15734;50.904;6.922;2023-02-28T06:27:52;0.30;99.90
28524;DHT22;15734;50.904;6.922;2023-02-28T06:30:18;0.30;99.90
28524;DHT22;15734;50.904;6.922;2023-02-28T06:32:43;0.30;99.90
28524;DHT22;15734;50.904;6.922;2023-02-28T06:35:09;0.40;99.90
28524;DHT22;15734;50.904;6.922;2023-02-28T06:37:35;0.40;99.90
28524;DHT22;15734;50.904;6.922;2023-02-28T06:40:00;0.50;99.90
28524;DHT22;15734;50.904;6.922;2023-02-28T06:42:26;0.50;99.90
28524;DHT22;15734;50.904;6.922;2023-02-28T06:44:54;0.60;99.90
28524;DHT22;15734;50.904;6.922;2023-02-28T06:47:20;0.60;99.90
28524;DHT22;15734;50.904;6.922;2023-02-28T06:49:45;0.70;99.90
28524;DHT22;15734;50.904;6.922;2023-02-28T06:52:10;0.80;99.90
28524;DHT22;15734;50.904;6.922;2023-02-28T06:54:36;0.80;99.90
28524;DHT22;15734;50.904;6.922;2023-02-28T06:57:02;0.80;99.90
28524;DHT22;15734;50.904;6.922;2023-02-28T06:59:27;0.80;99.90
28524;DHT22;15734;50.904;6.922;2023-02-28T07:01:53;0.80;99.90
28524;DHT22;15734;50.904;6.922;2023-02-28T07:04:20;0.80;99.90
28524;DHT22;15734;50.904;6.922;2023-02-28T07:06:45;0.80;99.90
28524;DHT22;15734;50.904;6.922;2023-02-28T07:09:11;0.90;99.90
28524;DHT22;15734;50.904;6.922;2023-02-28T07:11:36;1.00;99.90
28524;DHT22;15734;50.904;6.922;2023-02-28T07:14:02;0.90;99.90
28524;DHT22;15734;50.904;6.922;2023-02-28T07:16:27;1.00;99.90
28524;DHT22;15734;50.904;6.922;2023-02-28T07:18:53;0.90;99.90
28524;DHT22;15734;50.904;6.922;2023-02-28T07:21:19;0.90;99.90
28524;DHT22;15734;50.904;6.922;2023-02-28T07:23:44;1.00;99.90
28524;DHT22;15734;50.904;6.922;2023-02-28T07:26:13;1.00;99.90
28524;DHT22;15734;50.904;6.922;2023-02-28T07:28:40;1.00;99.90
28524;DHT22;15734;50.904;6.922;2023-02-28T07:31:06;1.10;99.90
28524;DHT22;15734;50.904;6.922;2023-02-28T07:33:32;1.10;99.90
28524;DHT22;15734;50.904;6.922;2023-02-28T07:36:02;1.10;99.90
28524;DHT22;15734;50.904;6.922;2023-02-28T07:38:27;1.20;99.90
28524;DHT22;15734;50.904;6.922;2023-02-28T07:40:53;1.20;99.90
28524;DHT22;15734;50.904;6.922;2023-02-28T07:43:18;1.20;99.90
28524;DHT22;15734;50.904;6.922;2023-02-28T07:45:43;1.30;99.90
28524;DHT22;15734;50.904;6.922;2023-02-28T07:48:09;1.30;99.90
28524;DHT22;15734;50.904;6.922;2023-02-28T07:50:35;1.30;99.90
28524;DHT22;15734;50.904;6.922;2023-02-28T07:53:00;1.30;99.90
28524;DHT22;15734;50.904;6.922;2023-02-28T07:55:26;1.40;99.90
28524;DHT22;15734;50.904;6.922;2023-02-28T07:57:51;1.50;99.90
28524;DHT22;15734;50.904;6.922;2023-02-28T08:00:17;1.50;99.90
28524;DHT22;15734;50.904;6.922;2023-02-28T08:02:43;1.50;99.90
28524;DHT22;15734;50.904;6.922;2023-02-28T08:05:08;1.60;99.90
28524;DHT22;15734;50.904;6.922;2023-02-28T08:07:34;1.60;99.90
28524;DHT22;15734;50.904;6.922;2023-02-28T08:10:00;1.60;99.90
28524;DHT22;15734;50.904;6.922;2023-02-28T08:12:25;1.70;99.90
28524;DHT22;15734;50.904;6.922;2023-02-28T08:14:51;1.80;99.90
28524;DHT22;15734;50.904;6.922;2023-02-28T08:17:16;1.80;99.90
28524;DHT22;15734;50.904;6.922;2023-02-28T08:19:44;1.90;99.90
28524;DHT22;15734;50.904;6.922;2023-02-28T08:22:10;1.90;99.90
28524;DHT22;15734;50.904;6.922;2023-02-28T08:24:35;2.00;99.90
28524;DHT22;15734;50.904;6.922;2023-02-28T08:27:01;2.00;99.90
28524;DHT22;15734;50.904;6.922;2023-02-28T08:29:26;2.10;99.90
28524;DHT22;15734;50.904;6.922;2023-02-28T08:31:51;2.10;99.90
28524;DHT22;15734;50.904;6.922;2023-02-28T08:34:17;2.20;99.90
28524;DHT22;15734;50.904;6.922;2023-02-28T08:36:42;2.20;99.90
28524;DHT22;15734;50.904;6.922;2023-02-28T08:39:10;2.30;99.90
28524;DHT22;15734;50.904;6.922;2023-02-28T08:41:35;2.30;99.90
28524;DHT22;15734;50.904;6.922;2023-02-28T08:44:01;2.40;99.90
28524;DHT22;15734;50.904;6.922;2023-02-28T08:46:27;2.50;99.90
28524;DHT22;15734;50.904;6.922;2023-02-28T08:48:53;2.60;99.90
28524;DHT22;15734;50.904;6.922;2023-02-28T08:51:19;2.70;99.90
28524;DHT22;15734;50.904;6.922;2023-02-28T08:53:51;2.70;99.90
28524;DHT22;15734;50.904;6.922;2023-02-28T08:56:17;2.80;99.90
28524;DHT22;15734;50.904;6.922;2023-02-28T08:58:43;2.80;99.90
28524;DHT22;15734;50.904;6.922;2023-02-28T09:03:34;3.00;99.90
28524;DHT22;15734;50.904;6.922;2023-02-28T09:06:00;3.00;99.90
28524;DHT22;15734;50.904;6.922;2023-02-28T09:08:28;3.10;99.90
28524;DHT22;15734;50.904;6.922;2023-02-28T09:10:54;3.10;99.90
28524;DHT22;15734;50.904;6.922;2023-02-28T09:13:22;3.20;99.90
28524;DHT22;15734;50.904;6.922;2023-02-28T09:15:48;3.30;99.90
28524;DHT22;15734;50.904;6.922;2023-02-28T09:18:13;3.40;99.90
28524;DHT22;15734;50.904;6.922;2023-02-28T09:20:40;3.50;99.90
28524;DHT22;15734;50.904;6.922;2023-02-28T09:23:09;3.50;99.90
28524;DHT22;15734;50.904;6.922;2023-02-28T09:25:34;3.60;99.90
28524;DHT22;15734;50.904;6.922;2023-02-28T09:28:02;3.60;99.90
28524;DHT22;15734;50.904;6.922;2023-02-28T09:30:28;3.70;99.90
28524;DHT22;15734;50.904;6.922;2023-02-28T09:32:53;3.80;99.90
28524;DHT22;15734;50.904;6.922;2023-02-28T09:35:20;3.90;99.90
28524;DHT22;15734;50.904;6.922;2023-02-28T09:37:46;4.00;99.90
28524;DHT22;15734;50.904;6.922;2023-02-28T09:40:12;4.10;99.90
28524;DHT22;15734;50.904;6.922;2023-02-28T09:42:39;4.20;99.90
28524;DHT22;15734;50.904;6.922;2023-02-28T09:45:06;4.30;99.90
28524;DHT22;15734;50.904;6.922;2023-02-28T09:47:38;4.20;99.90
28524;DHT22;15734;50.904;6.922;2023-02-28T09:53:02;4.40;99.90
28524;DHT22;15734;50.904;6.922;2023-02-28T09:55:30;4.40;99.90
28524;DHT22;15734;50.904;6.922;2023-02-28T09:57:57;4.50;99.90
28524;DHT22;15734;50.904;6.922;2023-02-28T10:05:33;5.10;99.90
28524;DHT22;15734;50.904;6.922;2023-02-28T10:12:56;5.40;99.90
28524;DHT22;15734;50.904;6.922;2023-02-28T10:15:24;5.30;99.90
28524;DHT22;15734;50.904;6.922;2023-02-28T10:17:53;5.40;99.90
28524;DHT22;15734;50.904;6.922;2023-02-28T10:20:20;5.40;99.90
28524;DHT22;15734;50.904;6.922;2023-02-28T10:25:19;5.60;99.90
28524;DHT22;15734;50.904;6.922;2023-02-28T10:27:44;5.70;99.90
28524;DHT22;15734;50.904;6.922;2023-02-28T10:30:10;5.90;99.90
28524;DHT22;15734;50.904;6.922;2023-02-28T10:32:36;6.00;99.90
28524;DHT22;15734;50.904;6.922;2023-02-28T10:37:30;5.80;99.90
28524;DHT22;15734;50.904;6.922;2023-02-28T10:39:56;5.90;99.90
28524;DHT22;15734;50.904;6.922;2023-02-28T10:42:26;6.00;99.90
28524;DHT22;15734;50.904;6.922;2023-02-28T10:45:05;6.20;99.90
28524;DHT22;15734;50.904;6.922;2023-02-28T10:47:31;6.20;99.90
28524;DHT22;15734;50.904;6.922;2023-02-28T10:49:58;6.10;99.90
28524;DHT22;15734;50.904;6.922;2023-02-28T10:52:34;6.00;99.90
28524;DHT22;15734;50.904;6.922;2023-02-28T10:57:59;6.00;99.90
28524;DHT22;15734;50.904;6.922;2023-02-28T11:00:25;6.10;99.90
28524;DHT22;15734;50.904;6.922;2023-02-28T11:02:56;6.00;99.90
28524;DHT22;15734;50.904;6.922;2023-02-28T11:05:27;6.00;99.90
28524;DHT22;15734;50.904;6.922;2023-02-28T11:07:53;6.20;99.90
28524;DHT22;15734;50.904;6.922;2023-02-28T11:10:20;6.40;99.90
28524;DHT22;15734;50.904;6.922;2023-02-28T11:12:46;6.40;99.90
28524;DHT22;15734;50.904;6.922;2023-02-28T11:15:22;6.60;99.90
28524;DHT22;15734;50.904;6.922;2023-02-28T11:17:56;6.70;99.90
28524;DHT22;15734;50.904;6.922;2023-02-28T11:20:23;6.40;99.90
28524;DHT22;15734;50.904;6.922;2023-02-28T11:22:50;6.40;99.90
28524;DHT22;15734;50.904;6.922;2023-02-28T11:25:21;6.40;99.90
28524;DHT22;15734;50.904;6.922;2023-02-28T11:27:57;6.50;99.90
28524;DHT22;15734;50.904;6.922;2023-02-28T11:30:27;6.70;99.90
28524;DHT22;15734;50.904;6.922;2023-02-28T11:32:53;6.70;99.90
28524;DHT22;15734;50.904;6.922;2023-02-28T11:35:32;6.60;99.90
28524;DHT22;15734;50.904;6.922;2023-02-28T11:38:00;6.50;99.90
28524;DHT22;15734;50.904;6.922;2023-02-28T11:40:28;6.70;99.90
28524;DHT22;15734;50.904;6.922;2023-02-28T11:43:01;6.80;99.70
28524;DHT22;15734;50.904;6.922;2023-02-28T11:48:20;6.80;99.90
28524;DHT22;15734;50.904;6.922;2023-02-28T11:50:48;6.80;99.50
28524;DHT22;15734;50.904;6.922;2023-02-28T11:56:04;7.10;99.20
28524;DHT22;15734;50.904;6.922;2023-02-28T12:08:44;8.10;96.80
28524;DHT22;15734;50.904;6.922;2023-02-28T12:16:13;7.90;97.40
28524;DHT22;15734;50.904;6.922;2023-02-28T12:18:47;8.20;96.90
28524;DHT22;15734;50.904;6.922;2023-02-28T12:26:16;8.70;96.70
28524;DHT22;15734;50.904;6.922;2023-02-28T12:28:53;8.80;97.00
28524;DHT22;15734;50.904;6.922;2023-02-28T12:31:29;9.00;96.20
28524;DHT22;15734;50.904;6.922;2023-02-28T12:34:06;9.00;97.20
28524;DHT22;15734;50.904;6.922;2023-02-28T12:36:32;9.20;95.10
28524;DHT22;15734;50.904;6.922;2023-02-28T12:39:10;9.30;96.00
28524;DHT22;15734;50.904;6.922;2023-02-28T12:44:04;9.50;95.40
28524;DHT22;15734;50.904;6.922;2023-02-28T12:46:35;9.80;94.40
28524;DHT22;15734;50.904;6.922;2023-02-28T12:49:10;9.50;93.00
28524;DHT22;15734;50.904;6.922;2023-02-28T12:51:38;9.00;95.20
28524;DHT22;15734;50.904;6.922;2023-02-28T12:54:06;9.40;93.70
28524;DHT22;15734;50.904;6.922;2023-02-28T12:59:24;9.20;95.80
28524;DHT22;15734;50.904;6.922;2023-02-28T13:01:55;9.50;94.50
28524;DHT22;15734;50.904;6.922;2023-02-28T13:09:25;9.50;94.10
28524;DHT22;15734;50.904;6.922;2023-02-28T13:11:51;9.70;94.20
28524;DHT22;15734;50.904;6.922;2023-02-28T13:14:28;9.60;94.40
28524;DHT22;15734;50.904;6.922;2023-02-28T13:19:21;9.30;93.20
28524;DHT22;15734;50.904;6.922;2023-02-28T13:21:49;9.40;93.50
28524;DHT22;15734;50.904;6.922;2023-02-28T13:24:36;9.20;93.30
28524;DHT22;15734;50.904;6.922;2023-02-28T13:48:14;9.90;93.70
28524;DHT22;15734;50.904;6.922;2023-02-28T13:55:31;9.70;91.90
28524;DHT22;15734;50.904;6.922;2023-02-28T13:58:04;9.10;93.90
28524;DHT22;15734;50.904;6.922;2023-02-28T14:05:23;9.80;93.90
28524;DHT22;15734;50.904;6.922;2023-02-28T14:07:52;10.30;93.50
28524;DHT22;15734;50.904;6.922;2023-02-28T14:12:53;9.90;93.20
28524;DHT22;15734;50.904;6.922;2023-02-28T14:15:43;10.20;93.00
28524;DHT22;15734;50.904;6.922;2023-02-28T14:20:41;10.00;92.00
28524;DHT22;15734;50.904;6.922;2023-02-28T14:23:10;9.30;92.10
28524;DHT22;15734;50.904;6.922;2023-02-28T14:28:36;9.50;93.30
28524;DHT22;15734;50.904;6.922;2023-02-28T14:31:10;10.10;91.90
28524;DHT22;15734;50.904;6.922;2023-02-28T14:33:43;9.70;91.90
28524;DHT22;15734;50.904;6.922;2023-02-28T14:36:21;9.70;92.50
28524;DHT22;15734;50.904;6.922;2023-02-28T14:41:18;9.70;93.00
28524;DHT22;15734;50.904;6.922;2023-02-28T14:43:55;9.50;91.20
28524;DHT22;15734;50.904;6.922;2023-02-28T14:46:22;9.30;92.30
28524;DHT22;15734;50.904;6.922;2023-02-28T14:48:48;9.20;93.20
28524;DHT22;15734;50.904;6.922;2023-02-28T14:51:18;9.20;92.00
28524;DHT22;15734;50.904;6.922;2023-02-28T14:53:44;9.00;93.20
28524;DHT22;15734;50.904;6.922;2023-02-28T14:56:19;9.10;94.10
28524;DHT22;15734;50.904;6.922;2023-02-28T14:58:50;9.00;94.00
28524;DHT22;15734;50.904;6.922;2023-02-28T15:01:19;8.60;93.70
28524;DHT22;15734;50.904;6.922;2023-02-28T15:03:44;8.70;94.30
28524;DHT22;15734;50.904;6.922;2023-02-28T15:06:14;8.70;93.80
28524;DHT22;15734;50.904;6.922;2023-02-28T15:08:40;8.40;94.10
28524;DHT22;15734;50.904;6.922;2023-02-28T15:11:11;8.50;94.40
28524;DHT22;15734;50.904;6.922;2023-02-28T15:16:29;8.30;94.20
28524;DHT22;15734;50.904;6.922;2023-02-28T15:19:00;8.50;94.60
28524;DHT22;15734;50.904;6.922;2023-02-28T15:21:29;8.50;93.60
28524;DHT22;15734;50.904;6.922;2023-02-28T15:26:25;8.10;94.60
28524;DHT22;15734;50.904;6.922;2023-02-28T15:28:52;8.00;94.10
28524;DHT22;15734;50.904;6.922;2023-02-28T15:31:29;8.10;94.60
28524;DHT22;15734;50.904;6.922;2023-02-28T15:33:56;8.40;94.70
28524;DHT22;15734;50.904;6.922;2023-02-28T15:36:26;8.50;93.80
28524;DHT22;15734;50.904;6.922;2023-02-28T15:38:53;8.40;93.00
28524;DHT22;15734;50.904;6.922;2023-02-28T15:41:26;8.30;94.70
28524;DHT22;15734;50.904;6.922;2023-02-28T15:46:36;8.20;93.40
28524;DHT22;15734;50.904;6.922;2023-02-28T15:49:01;8.10;94.20
28524;DHT22;15734;50.904;6.922;2023-02-28T15:51:33;8.10;94.00
28524;DHT22;15734;50.904;6.922;2023-02-28T15:54:10;8.20;93.90
28524;DHT22;15734;50.904;6.922;2023-02-28T15:59:42;7.80;94.00
28524;DHT22;15734;50.904;6.922;2023-02-28T16:02:14;7.80;94.40
28524;DHT22;15734;50.904;6.922;2023-02-28T16:04:58;7.80;94.80
28524;DHT22;15734;50.904;6.922;2023-02-28T16:07:24;7.80;94.40
28524;DHT22;15734;50.904;6.922;2023-02-28T16:09:50;7.90;93.60
28524;DHT22;15734;50.904;6.922;2023-02-28T16:12:15;7.70;94.90
28524;DHT22;15734;50.904;6.922;2023-02-28T16:14:41;7.50;94.70
28524;DHT22;15734;50.904;6.922;2023-02-28T16:17:15;7.50;94.70
28524;DHT22;15734;50.904;6.922;2023-02-28T16:19:43;7.50;94.90
28524;DHT22;15734;50.904;6.922;2023-02-28T16:22:09;7.30;95.30
28524;DHT22;15734;50.904;6.922;2023-02-28T16:24:34;7.30;95.80
28524;DHT22;15734;50.904;6.922;2023-02-28T16:27:00;7.10;96.40
28524;DHT22;15734;50.904;6.922;2023-02-28T16:29:33;7.10;96.00
28524;DHT22;15734;50.904;6.922;2023-02-28T16:31:59;7.00;97.10
28524;DHT22;15734;50.904;6.922;2023-02-28T16:34:25;7.00;95.80
28524;DHT22;15734;50.904;6.922;2023-02-28T16:36:51;7.00;95.90
28524;DHT22;15734;50.904;6.922;2023-02-28T16:39:16;6.80;96.50
28524;DHT22;15734;50.904;6.922;2023-02-28T16:41:43;6.80;96.90
28524;DHT22;15734;50.904;6.922;2023-02-28T16:44:11;6.90;95.90
28524;DHT22;15734;50.904;6.922;2023-02-28T16:46:38;6.80;97.00
28524;DHT22;15734;50.904;6.922;2023-02-28T16:49:04;6.80;97.70
28524;DHT22;15734;50.904;6.922;2023-02-28T16:51:29;6.70;97.70
28524;DHT22;15734;50.904;6.922;2023-02-28T16:53:54;6.60;97.90
28524;DHT22;15734;50.904;6.922;2023-02-28T16:56:21;6.40;97.90
28524;DHT22;15734;50.904;6.922;2023-02-28T16:58:47;6.40;97.50
28524;DHT22;15734;50.904;6.922;2023-02-28T17:01:13;6.30;97.60
28524;DHT22;15734;50.904;6.922;2023-02-28T17:03:39;6.20;98.00
28524;DHT22;15734;50.904;6.922;2023-02-28T17:06:12;6.10;98.40
28524;DHT22;15734;50.904;6.922;2023-02-28T17:08:39;6.10;98.80
28524;DHT22;15734;50.904;6.922;2023-02-28T17:11:04;6.10;99.00
28524;DHT22;15734;50.904;6.922;2023-02-28T17:13:30;6.00;98.20
28524;DHT22;15734;50.904;6.922;2023-02-28T17:15:55;6.10;98.50
28524;DHT22;15734;50.904;6.922;2023-02-28T17:18:21;6.00;98.60
28524;DHT22;15734;50.904;6.922;2023-02-28T17:20:47;5.90;99.20
28524;DHT22;15734;50.904;6.922;2023-02-28T17:23:12;5.80;99.30
28524;DHT22;15734;50.904;6.922;2023-02-28T17:25:38;5.80;99.60
28524;DHT22;15734;50.904;6.922;2023-02-28T17:28:03;5.70;99.80
28524;DHT22;15734;50.904;6.922;2023-02-28T17:30:29;5.70;99.80
28524;DHT22;15734;50.904;6.922;2023-02-28T17:32:55;5.60;99.90
28524;DHT22;15734;50.904;6.922;2023-02-28T17:35:21;5.60;99.90
28524;DHT22;15734;50.904;6.922;2023-02-28T17:37:46;5.50;99.90
28524;DHT22;15734;50.904;6.922;2023-02-28T17:40:12;5.50;99.90
28524;DHT22;15734;50.904;6.922;2023-02-28T17:42:38;5.50;99.90
28524;DHT22;15734;50.904;6.922;2023-02-28T17:45:04;5.40;99.90
28524;DHT22;15734;50.904;6.922;2023-02-28T17:47:30;5.30;99.90
28524;DHT22;15734;50.904;6.922;2023-02-28T17:49:55;5.30;99.90
28524;DHT22;15734;50.904;6.922;2023-02-28T17:52:20;5.30;99.90
28524;DHT22;15734;50.904;6.922;2023-02-28T17:54:47;5.20;99.90
28524;DHT22;15734;50.904;6.922;2023-02-28T17:57:14;5.20;99.90
28524;DHT22;15734;50.904;6.922;2023-02-28T17:59:39;5.20;99.90
28524;DHT22;15734;50.904;6.922;2023-02-28T18:02:06;5.10;99.90
28524;DHT22;15734;50.904;6.922;2023-02-28T18:04:31;5.10;99.90
28524;DHT22;15734;50.904;6.922;2023-02-28T18:06:57;5.10;99.90
28524;DHT22;15734;50.904;6.922;2023-02-28T18:09:25;5.00;99.90
28524;DHT22;15734;50.904;6.922;2023-02-28T18:11:51;5.00;99.90
28524;DHT22;15734;50.904;6.922;2023-02-28T18:14:18;5.00;99.90